Time;durP1;ratioP1;P1;durP2;ratioP2;P2;SDS_P1;SDS_P2;PMS_P1;PMS_P2;Temp;Humidity;BMP_temperature;BMP_pressure;BME280_temperature;BME280_humidity;BME280_pressure;Samples;Min_cycle;Max_cycle;Signal;HPM_P1;HPM_P2
2023/06/18 00:00:00;;;;;;;6.73;6.13;;;21.00;34.50;;;;;;20859;6721;116976;-72
2023/06/18 00:02:36;;;;;;;7.30;6.60;;;21.00;34.60;;;;;;20956;6702;117944;-72
2023/06/18 00:05:11;;;;;;;8.20;7.60;;;20.90;34.50;;;;;;20712;6718;305493;-71
2023/06/18 00:07:47;;;;;;;8.07;7.40;;;21.30;34.60;;;;;;20547;6732;307195;-73
2023/06/18 00:10:23;;;;;;;7.60;7.10;;;21.80;34.20;;;;;;20922;6717;117319;-72
2023/06/18 00:12:58;;;;;;;7.43;6.77;;;21.70;34.00;;;;;;20904;6721;117477;-73
2023/06/18 00:15:34;;;;;;;7.47;6.97;;;21.40;34.20;;;;;;20909;6724;117906;-73
2023/06/18 00:18:09;;;;;;;7.63;7.03;;;21.10;34.50;;;;;;20738;6717;117175;-72
2023/06/18 00:20:46;;;;;;;8.60;7.90;;;21.20;35.40;;;;;;20669;6726;306260;-73
2023/06/18 00:23:21;;;;;;;8.48;7.90;;;21.10;35.20;;;;;;20781;6706;275258;-72
2023/06/18 00:25:57;;;;;;;8.43;7.93;;;21.60;34.80;;;;;;20737;6706;310749;-73
2023/06/18 00:28:35;;;;;;;7.43;6.93;;;21.80;34.40;;;;;;20913;6706;120472;-73
2023/06/18 00:31:11;;;;;;;8.37;7.80;;;21.60;34.40;;;;;;20705;6721;277516;-73
2023/06/18 00:33:44;;;;;;;7.80;7.10;;;21.70;34.60;;;;;;20919;6721;117896;-73
2023/06/18 00:36:20;;;;;;;7.50;7.03;;;21.20;35.10;;;;;;20838;6736;116944;-72
2023/06/18 00:38:56;;;;;;;8.23;7.63;;;21.20;35.60;;;;;;20700;6721;305527;-73
2023/06/18 00:41:31;;;;;;;8.70;8.10;;;21.30;36.60;;;;;;20728;6722;275132;-72
2023/06/18 00:44:08;;;;;;;8.90;8.20;;;21.60;36.10;;;;;;20730;6706;276738;-72
2023/06/18 00:46:46;;;;;;;8.27;7.78;;;21.80;35.70;;;;;;20667;6706;305894;-72
2023/06/18 00:49:18;;;;;;;8.37;7.70;;;21.90;35.00;;;;;;20657;6739;283093;-72
2023/06/18 00:51:53;;;;;;;8.30;7.80;;;22.00;34.80;;;;;;20699;6724;304182;-72
2023/06/18 00:54:29;;;;;;;8.23;7.72;;;22.00;35.80;;;;;;20702;6727;305706;-72
2023/06/18 00:57:08;;;;;;;7.87;7.20;;;22.10;35.00;;;;;;20889;6706;123312;-72
2023/06/18 00:59:42;;;;;;;8.40;7.70;;;21.70;35.00;;;;;;20744;6712;284236;-73
2023/06/18 01:02:23;;;;;;;8.80;8.10;;;21.70;35.20;;;;;;20744;6712;275803;-73
2023/06/18 01:04:53;;;;;;;8.60;7.80;;;21.80;34.90;;;;;;20963;6701;118128;-72
2023/06/18 01:07:27;;;;;;;8.70;8.00;;;21.50;35.00;;;;;;20624;6712;282218;-73
2023/06/18 01:10:03;;;;;;;8.75;8.20;;;21.60;35.40;;;;;;20740;6712;339350;-73
2023/06/18 01:12:38;;;;;;;8.73;8.13;;;21.70;35.20;;;;;;20946;6712;116907;-73
2023/06/18 01:15:14;;;;;;;8.57;7.97;;;21.40;35.30;;;;;;20982;6697;118123;-71
2023/06/18 01:17:51;;;;;;;8.63;8.00;;;21.00;35.70;;;;;;20864;6697;117154;-72
2023/06/18 01:20:26;;;;;;;8.40;7.60;;;20.70;36.20;;;;;;20990;6702;116893;-73
2023/06/18 01:23:06;;;;;;;8.47;7.87;;;20.40;36.40;;;;;;20953;6709;116652;-73
2023/06/18 01:25:40;;;;;;;8.43;7.83;;;20.30;36.60;;;;;;20892;6736;117009;-72
2023/06/18 01:28:19;;;;;;;8.20;7.60;;;20.10;37.50;;;;;;20770;6783;118354;-73
2023/06/18 01:30:53;;;;;;;9.10;8.50;;;20.30;38.30;;;;;;20742;6698;276267;-73
2023/06/18 01:33:27;;;;;;;9.07;8.48;;;20.30;37.60;;;;;;20663;6736;301198;-72
2023/06/18 01:36:03;;;;;;;8.70;8.07;;;20.70;37.20;;;;;;20893;6739;117096;-72
2023/06/18 01:38:38;;;;;;;9.30;8.60;;;20.60;36.90;;;;;;20741;6709;280797;-72
2023/06/18 01:41:14;;;;;;;7.70;7.13;;;20.70;37.20;;;;;;20955;6709;121079;-73
2023/06/18 01:43:49;;;;;;;9.70;8.70;;;20.60;37.10;;;;;;20697;6721;293179;-72
2023/06/18 01:46:25;;;;;;;9.35;8.75;;;20.70;36.90;;;;;;20639;6776;307757;-71
2023/06/18 01:49:04;;;;;;;9.03;8.43;;;21.00;36.60;;;;;;20756;6702;304568;-73
2023/06/18 01:51:40;;;;;;;8.23;7.63;;;20.90;36.60;;;;;;20937;6717;116900;-73
2023/06/18 01:54:17;;;;;;;7.97;7.40;;;20.90;36.60;;;;;;21002;6699;116836;-72
2023/06/18 01:56:51;;;;;;;8.47;7.80;;;20.50;37.10;;;;;;20769;6706;118345;-73
2023/06/18 01:59:27;;;;;;;8.77;7.97;;;20.20;37.60;;;;;;20946;6709;117352;-72
2023/06/18 02:02:03;;;;;;;9.30;8.70;;;19.90;38.10;;;;;;20807;6706;305775;-73
2023/06/18 02:04:43;;;;;;;8.30;7.43;;;20.10;39.10;;;;;;20953;6707;118022;-75
2023/06/18 02:07:18;;;;;;;8.03;7.43;;;20.00;38.60;;;;;;20894;6691;123660;-72
2023/06/18 02:09:50;;;;;;;9.00;8.40;;;19.70;38.60;;;;;;20759;6707;301687;-73
2023/06/18 02:12:26;;;;;;;8.98;8.38;;;19.90;38.80;;;;;;20715;6723;277102;-72
2023/06/18 02:15:01;;;;;;;8.33;7.83;;;20.20;38.20;;;;;;21009;6691;118292;-72
2023/06/18 02:17:37;;;;;;;8.30;7.73;;;20.00;38.10;;;;;;20788;6721;117305;-73
2023/06/18 02:20:13;;;;;;;8.73;7.93;;;19.70;38.40;;;;;;20959;6707;116823;-72
2023/06/18 02:22:49;;;;;;;9.50;8.90;;;19.40;38.70;;;;;;20696;6706;306932;-73
2023/06/18 02:25:29;;;;;;;8.20;7.70;;;19.60;39.40;;;;;;20968;6721;116814;-72
2023/06/18 02:27:59;;;;;;;9.63;8.93;;;19.50;39.00;;;;;;20444;6742;279739;-72
2023/06/18 02:30:35;;;;;;;9.52;8.82;;;19.70;39.20;;;;;;20680;6727;336326;-73
2023/06/18 02:33:11;;;;;;;9.40;8.80;;;20.00;38.70;;;;;;20717;6721;306514;-73
2023/06/18 02:35:46;;;;;;;8.67;8.07;;;20.20;38.30;;;;;;20979;6706;117314;-72
2023/06/18 02:38:22;;;;;;;9.00;8.30;;;20.00;38.40;;;;;;20710;6769;123598;-71
2023/06/18 02:40:57;;;;;;;8.90;8.30;;;19.60;38.80;;;;;;20913;6712;118507;-73
2023/06/18 02:43:36;;;;;;;7.90;7.40;;;19.30;39.20;;;;;;20943;6716;117379;-72
2023/06/18 02:46:08;;;;;;;9.40;8.80;;;19.10;39.60;;;;;;20704;6712;314303;-72
2023/06/18 02:48:44;;;;;;;9.43;8.77;;;19.40;39.90;;;;;;20735;6709;300268;-73
2023/06/18 02:51:20;;;;;;;9.40;8.80;;;19.80;39.50;;;;;;20747;6712;279918;-73
2023/06/18 02:54:04;;;;;;;9.25;8.75;;;20.40;39.00;;;;;;20739;6712;305608;-72
2023/06/18 02:56:31;;;;;;;8.97;8.33;;;20.40;39.60;;;;;;20878;6712;118447;-73
2023/06/18 02:59:07;;;;;;;10.20;9.43;;;20.10;38.90;;;;;;20779;6706;305940;-72
2023/06/18 03:01:45;;;;;;;9.60;8.93;;;20.10;39.40;;;;;;20778;6706;305443;-72
2023/06/18 03:04:21;;;;;;;9.47;8.87;;;20.20;39.50;;;;;;20745;6706;306059;-72
2023/06/18 03:06:54;;;;;;;10.15;9.48;;;20.20;39.50;;;;;;20682;6691;319203;-72
2023/06/18 03:09:29;;;;;;;9.30;8.80;;;20.20;39.70;;;;;;20987;6702;119100;-72
2023/06/18 03:12:05;;;;;;;9.47;8.87;;;19.80;39.90;;;;;;20971;6721;116887;-72
2023/06/18 03:14:41;;;;;;;10.67;9.83;;;19.30;40.40;;;;;;20741;6721;312255;-72
2023/06/18 03:17:16;;;;;;;9.33;8.83;;;19.30;40.90;;;;;;20838;6714;118089;-72
2023/06/18 03:19:52;;;;;;;9.37;8.57;;;19.20;40.60;;;;;;21005;6699;116861;-72
2023/06/18 03:22:28;;;;;;;9.37;8.73;;;18.90;40.80;;;;;;20941;6709;118119;-72
2023/06/18 03:25:05;;;;;;;10.60;9.80;;;19.00;41.70;;;;;;20729;6712;278684;-71
2023/06/18 03:27:39;;;;;;;10.00;9.10;;;18.90;41.60;;;;;;20760;6721;117517;-72
2023/06/18 03:30:15;;;;;;;9.60;8.70;;;19.00;41.30;;;;;;20943;6706;119138;-72
2023/06/18 03:32:52;;;;;;;9.77;9.17;;;18.60;41.50;;;;;;20888;6712;192392;-71
2023/06/18 03:35:27;;;;;;;10.83;10.07;;;18.60;41.50;;;;;;20744;6698;304231;-71
2023/06/18 03:38:02;;;;;;;11.15;10.43;;;19.00;41.80;;;;;;20546;6698;311018;-72
2023/06/18 03:40:38;;;;;;;12.33;11.43;;;19.40;41.10;;;;;;20648;6731;307163;-72
2023/06/18 03:43:14;;;;;;;10.40;9.80;;;19.80;40.40;;;;;;20715;6721;306059;-72
2023/06/18 03:45:49;;;;;;;10.50;9.70;;;20.00;40.00;;;;;;20788;6698;276072;-72
2023/06/18 03:48:25;;;;;;;10.20;9.50;;;20.20;39.60;;;;;;20928;6722;117507;-72
2023/06/18 03:51:04;;;;;;;10.20;9.50;;;20.00;39.70;;;;;;20703;6721;279072;-73
2023/06/18 03:53:37;;;;;;;9.45;8.82;;;20.00;39.90;;;;;;20715;6722;276778;-72
2023/06/18 03:56:11;;;;;;;11.00;10.13;;;20.30;39.60;;;;;;20691;6722;308043;-75
2023/06/18 03:58:48;;;;;;;9.63;8.90;;;20.50;39.20;;;;;;20894;6712;279201;-72
2023/06/18 04:01:24;;;;;;;10.10;9.30;;;20.30;39.20;;;;;;20935;6721;117760;-72
2023/06/18 04:04:00;;;;;;;10.57;9.77;;;19.90;39.60;;;;;;20713;6721;276274;-71
2023/06/18 04:06:35;;;;;;;10.32;9.63;;;19.90;40.10;;;;;;20589;6726;346326;-72
2023/06/18 04:09:12;;;;;;;9.90;8.97;;;20.10;40.10;;;;;;20931;6726;118912;-72
2023/06/18 04:11:47;;;;;;;9.70;9.10;;;19.90;40.20;;;;;;20679;6738;339635;-72
2023/06/18 04:14:25;;;;;;;10.20;9.50;;;20.10;40.10;;;;;;20723;6717;289792;-72
2023/06/18 04:17:00;;;;;;;10.73;9.93;;;20.10;40.00;;;;;;20578;6733;309755;-72
2023/06/18 04:19:35;;;;;;;9.20;8.40;;;20.30;39.60;;;;;;20981;6721;117034;-72
2023/06/18 04:22:10;;;;;;;10.57;9.67;;;20.00;39.70;;;;;;20744;6712;276972;-72
2023/06/18 04:24:50;;;;;;;8.60;8.00;;;19.80;40.10;;;;;;20940;6712;118578;-72
2023/06/18 04:27:25;;;;;;;9.83;9.13;;;19.80;40.10;;;;;;20606;6716;307671;-72
2023/06/18 04:30:01;;;;;;;9.80;9.10;;;19.90;40.20;;;;;;20944;6716;117282;-72
2023/06/18 04:32:37;;;;;;;9.80;9.10;;;19.80;40.30;;;;;;20944;6712;129779;-71
2023/06/18 04:35:12;;;;;;;10.30;9.70;;;19.50;40.50;;;;;;20744;6712;294224;-72
2023/06/18 04:37:48;;;;;;;10.45;9.73;;;19.60;40.90;;;;;;20467;6736;341071;-72
2023/06/18 04:40:25;;;;;;;9.10;8.40;;;20.00;40.70;;;;;;20855;6738;118827;-72
2023/06/18 04:43:01;;;;;;;10.67;9.87;;;19.90;40.60;;;;;;20662;6738;280250;-72
2023/06/18 04:45:37;;;;;;;10.23;9.53;;;19.90;40.60;;;;;;20744;6707;306696;-72
2023/06/18 04:48:14;;;;;;;10.33;9.60;;;20.20;40.40;;;;;;20716;6732;117505;-73
2023/06/18 04:50:48;;;;;;;10.50;9.80;;;20.00;40.40;;;;;;20711;6714;305598;-72
2023/06/18 04:53:24;;;;;;;10.13;9.43;;;20.30;40.60;;;;;;20722;6712;334388;-73
2023/06/18 04:56:00;;;;;;;9.90;9.10;;;20.30;40.50;;;;;;20945;6714;117081;-71
2023/06/18 04:58:37;;;;;;;9.67;8.63;;;20.10;40.50;;;;;;20933;6714;118507;-73
2023/06/18 05:01:13;;;;;;;9.13;8.43;;;19.40;41.30;;;;;;20960;6714;117124;-72
2023/06/18 05:03:48;;;;;;;9.53;8.80;;;19.40;41.40;;;;;;20898;6732;117060;-71
2023/06/18 05:06:24;;;;;;;10.27;9.27;;;19.20;41.70;;;;;;20823;6732;117331;-71
2023/06/18 05:09:00;;;;;;;8.67;8.07;;;19.10;41.90;;;;;;20871;6736;117500;-73
2023/06/18 05:11:38;;;;;;;10.43;9.63;;;18.90;41.90;;;;;;20954;6714;116829;-71
2023/06/18 05:14:11;;;;;;;10.25;9.63;;;18.90;42.10;;;;;;20679;6732;277187;-71
2023/06/18 05:16:47;;;;;;;11.10;10.30;;;19.20;42.30;;;;;;20519;6744;309476;-70
2023/06/18 05:19:22;;;;;;;10.50;9.70;;;19.60;41.50;;;;;;20964;6714;117693;-72
2023/06/18 05:21:58;;;;;;;10.03;9.33;;;19.70;41.40;;;;;;20958;6713;117276;-70
2023/06/18 05:24:33;;;;;;;11.10;10.32;;;19.50;41.50;;;;;;20664;6732;279381;-71
2023/06/18 05:27:19;;;;;;;10.97;10.30;;;19.70;41.60;;;;;;20562;6747;289843;-71
2023/06/18 05:29:45;;;;;;;11.37;10.17;;;20.50;40.60;;;;;;20681;6728;277416;-70
2023/06/18 05:32:21;;;;;;;11.25;10.45;;;20.50;41.20;;;;;;20659;6702;334988;-69
2023/06/18 05:34:56;;;;;;;11.73;10.93;;;20.70;40.10;;;;;;20736;6709;305953;-72
2023/06/18 05:37:32;;;;;;;10.80;10.20;;;20.90;39.90;;;;;;20602;6724;307926;-70
2023/06/18 05:40:08;;;;;;;11.00;10.20;;;21.00;39.60;;;;;;20688;6742;310375;-70
2023/06/18 05:42:47;;;;;;;10.03;9.27;;;21.20;39.70;;;;;;20857;6735;121010;-70
2023/06/18 05:45:19;;;;;;;10.27;9.53;;;21.00;39.80;;;;;;20723;6717;288231;-72
2023/06/18 05:47:55;;;;;;;10.82;9.93;;;21.10;40.10;;;;;;20582;6717;278426;-72
2023/06/18 05:50:34;;;;;;;10.60;9.90;;;21.30;39.80;;;;;;20679;6736;305525;-71
2023/06/18 05:53:07;;;;;;;9.40;8.87;;;21.60;39.70;;;;;;20914;6722;117822;-70
2023/06/18 05:55:43;;;;;;;10.68;9.85;;;21.50;39.80;;;;;;20697;6722;304229;-70
2023/06/18 05:58:20;;;;;;;9.70;9.00;;;21.60;40.00;;;;;;20690;6793;117466;-70
2023/06/18 06:00:56;;;;;;;10.52;9.93;;;21.60;40.10;;;;;;20680;6727;340912;-69
2023/06/18 06:03:35;;;;;;;10.43;9.75;;;21.80;39.90;;;;;;20705;6727;334694;-71
2023/06/18 06:06:08;;;;;;;10.80;10.10;;;22.10;39.50;;;;;;20692;6722;305982;-71
2023/06/18 06:08:43;;;;;;;10.80;10.20;;;22.50;39.10;;;;;;20637;6729;335061;-73
2023/06/18 06:11:19;;;;;;;10.53;9.73;;;22.90;38.40;;;;;;20681;6736;277556;-71
2023/06/18 06:13:55;;;;;;;10.07;9.40;;;23.50;37.30;;;;;;20676;6736;306548;-71
2023/06/18 06:16:31;;;;;;;9.40;8.83;;;24.40;37.20;;;;;;20917;6709;118739;-70
2023/06/18 06:19:06;;;;;;;8.50;8.00;;;24.40;37.20;;;;;;20944;6721;119066;-71
2023/06/18 06:21:43;;;;;;;9.67;9.07;;;24.50;37.50;;;;;;20886;6738;118104;-70
2023/06/18 06:24:20;;;;;;;9.53;8.87;;;24.70;37.60;;;;;;20819;6727;118826;-72
2023/06/18 06:26:55;;;;;;;10.10;9.43;;;24.90;37.60;;;;;;20539;6727;309065;-72
2023/06/18 06:29:32;;;;;;;9.77;9.07;;;25.60;35.10;;;;;;20700;6722;307915;-74
2023/06/18 06:32:08;;;;;;;10.03;9.50;;;26.40;33.90;;;;;;20726;6714;307649;-71
2023/06/18 06:34:44;;;;;;;9.73;9.13;;;27.10;32.90;;;;;;20871;6728;117260;-72
2023/06/18 06:37:20;;;;;;;9.37;8.70;;;27.30;33.60;;;;;;20839;6699;117470;-71
2023/06/18 06:39:57;;;;;;;8.43;7.93;;;27.30;33.60;;;;;;20837;6751;117524;-74
2023/06/18 06:42:32;;;;;;;9.70;9.00;;;27.40;33.80;;;;;;20700;6717;309631;-75
2023/06/18 06:45:08;;;;;;;9.40;8.70;;;27.90;31.90;;;;;;20972;6694;117502;-70
2023/06/18 06:47:46;;;;;;;9.00;8.40;;;28.20;32.20;;;;;;20639;6694;306211;-71
2023/06/18 06:50:20;;;;;;;8.53;7.90;;;28.70;30.60;;;;;;21001;6706;118993;-70
2023/06/18 06:53:01;;;;;;;9.70;8.77;;;28.90;31.10;;;;;;20895;6706;116967;-72
2023/06/18 06:55:32;;;;;;;9.67;8.97;;;28.80;31.60;;;;;;20905;6717;116999;-72
2023/06/18 06:58:07;;;;;;;9.57;8.97;;;28.80;31.80;;;;;;20488;6736;278760;-72
2023/06/18 07:00:52;;;;;;;9.17;8.40;;;29.30;30.70;;;;;;20851;6740;119387;-72
2023/06/18 07:03:19;;;;;;;9.63;8.93;;;29.40;30.70;;;;;;20639;6747;279241;-70
2023/06/18 07:05:55;;;;;;;8.60;8.10;;;30.00;30.10;;;;;;20876;6736;117003;-77
2023/06/18 07:08:31;;;;;;;8.60;8.10;;;29.90;30.10;;;;;;20927;6722;117320;-72
2023/06/18 07:11:08;;;;;;;9.30;8.70;;;30.30;29.60;;;;;;20712;6722;276575;-73
2023/06/18 07:13:44;;;;;;;9.13;8.47;;;30.30;29.60;;;;;;20739;6714;305940;-72
2023/06/18 07:16:19;;;;;;;8.87;8.37;;;30.80;29.40;;;;;;20861;6729;117579;-73
2023/06/18 07:18:56;;;;;;;9.17;8.57;;;30.90;29.30;;;;;;20744;6709;304933;-72
2023/06/18 07:21:31;;;;;;;9.10;8.60;;;30.90;29.00;;;;;;20723;6724;305528;-72
2023/06/18 07:24:07;;;;;;;8.88;8.27;;;31.10;28.80;;;;;;20716;6724;334595;-71
2023/06/18 07:26:43;;;;;;;8.93;8.32;;;31.30;28.50;;;;;;20601;6785;309805;-72
2023/06/18 07:29:20;;;;;;;8.43;7.83;;;31.50;28.60;;;;;;20917;6724;117395;-73
2023/06/18 07:31:56;;;;;;;8.30;7.90;;;31.30;28.90;;;;;;20933;6724;117844;-72
2023/06/18 07:34:32;;;;;;;8.43;7.83;;;30.90;29.00;;;;;;20918;6724;118022;-74
2023/06/18 07:37:17;;;;;;;8.37;7.97;;;30.60;29.20;;;;;;20307;6834;278946;-70
2023/06/18 07:39:43;;;;;;;8.15;7.65;;;30.70;28.40;;;;;;20760;6706;306530;-72
2023/06/18 07:42:19;;;;;;;7.87;7.30;;;31.00;28.10;;;;;;20950;6712;119523;-72
2023/06/18 07:44:55;;;;;;;7.97;7.57;;;31.10;28.20;;;;;;20668;6727;306528;-72
2023/06/18 07:47:31;;;;;;;7.37;7.00;;;31.20;27.80;;;;;;20787;6727;118917;-72
2023/06/18 07:50:08;;;;;;;8.57;7.97;;;31.30;28.10;;;;;;20768;6707;291687;-72
2023/06/18 07:52:42;;;;;;;7.13;6.73;;;31.50;28.30;;;;;;20907;6722;127185;-72
2023/06/18 07:55:20;;;;;;;8.47;7.97;;;31.40;28.50;;;;;;20932;6722;117822;-71
2023/06/18 08:11:32;;;;;;;8.73;8.23;;;31.30;28.90;;;;;;21196;6547;299767;-68
2023/06/18 08:13:58;;;;;;;8.80;8.00;;;31.60;28.40;;;;;;21308;6645;68081;-71
2023/06/18 08:16:23;;;;;;;8.50;8.00;;;31.70;28.30;;;;;;21013;6644;307574;-72
2023/06/18 08:18:52;;;;;;;8.05;7.55;;;32.10;27.80;;;;;;21135;6701;65790;-71
2023/06/18 08:21:14;;;;;;;8.53;7.93;;;32.10;27.90;;;;;;20906;6701;303692;-70
2023/06/18 08:23:40;;;;;;;7.60;6.93;;;32.40;27.90;;;;;;21160;6701;65557;-70
2023/06/18 08:26:05;;;;;;;7.90;7.50;;;32.40;27.60;;;;;;20960;6701;295231;-70
2023/06/18 08:28:31;;;;;;;8.03;7.30;;;32.70;26.80;;;;;;21176;6701;71879;-71
2023/06/18 08:30:57;;;;;;;7.30;6.90;;;32.70;26.80;;;;;;21142;6701;75105;-70
2023/06/18 08:33:22;;;;;;;7.60;7.20;;;32.70;27.00;;;;;;20887;6701;274128;-70
2023/06/18 08:35:50;;;;;;;8.17;7.47;;;32.90;26.40;;;;;;20954;6701;274092;-70
2023/06/18 08:38:16;;;;;;;7.80;7.17;;;33.60;25.60;;;;;;20966;6701;277443;-69
2023/06/18 08:40:46;;;;;;;7.60;7.13;;;33.60;25.60;;;;;;20968;6701;327034;-71
2023/06/18 08:43:14;;;;;;;7.00;6.60;;;33.90;25.80;;;;;;21142;6702;66151;-71
2023/06/18 08:45:38;;;;;;;7.50;6.80;;;33.90;25.60;;;;;;20972;6701;273508;-71
2023/06/18 08:48:03;;;;;;;7.43;6.87;;;34.00;25.10;;;;;;21189;6702;66106;-71
2023/06/18 08:50:29;;;;;;;7.60;7.00;;;34.00;25.30;;;;;;21182;6701;65976;-70
2023/06/18 08:52:58;;;;;;;7.73;7.03;;;33.80;25.40;;;;;;20963;6702;305771;-73
2023/06/18 08:55:21;;;;;;;7.17;6.73;;;33.90;25.50;;;;;;21153;6701;66160;-71
2023/06/18 08:57:53;;;;;;;7.40;7.00;;;34.10;25.60;;;;;;20959;6702;275384;-71
2023/06/18 09:00:18;;;;;;;7.47;6.97;;;34.20;25.10;;;;;;20920;6701;303233;-70
2023/06/18 09:02:45;;;;;;;7.67;7.17;;;34.40;25.10;;;;;;20954;6702;301866;-71
2023/06/18 09:05:12;;;;;;;7.05;6.65;;;34.60;24.80;;;;;;20970;6701;300012;-70
2023/06/18 09:07:38;;;;;;;7.50;6.90;;;34.70;24.90;;;;;;21173;6701;66114;-68
2023/06/18 09:10:05;;;;;;;7.10;6.47;;;34.60;24.80;;;;;;21176;6701;65741;-71
2023/06/18 09:12:30;;;;;;;7.37;6.87;;;34.40;24.90;;;;;;21179;6701;70100;-71
2023/06/18 09:14:56;;;;;;;7.13;6.63;;;34.30;25.00;;;;;;20963;6701;307434;-69
2023/06/18 09:17:22;;;;;;;6.80;6.33;;;34.50;24.60;;;;;;21174;6701;69894;-71
2023/06/18 09:19:49;;;;;;;6.93;6.53;;;34.40;24.20;;;;;;21175;6701;66103;-70
2023/06/18 09:22:15;;;;;;;6.70;6.33;;;34.40;24.30;;;;;;21174;6700;74429;-70
2023/06/18 09:24:41;;;;;;;7.20;6.70;;;34.20;24.20;;;;;;21003;6687;303228;-73
2023/06/18 09:27:07;;;;;;;6.77;6.37;;;34.40;23.30;;;;;;21007;6687;278917;-70
2023/06/18 09:29:33;;;;;;;7.47;7.07;;;34.80;22.30;;;;;;21003;6687;335082;-71
2023/06/18 09:32:05;;;;;;;6.37;6.07;;;34.80;22.30;;;;;;21213;6687;66056;-73
2023/06/18 09:34:32;;;;;;;6.87;6.47;;;34.80;23.10;;;;;;21005;6687;308015;-71
2023/06/18 09:36:59;;;;;;;6.67;6.27;;;34.80;22.70;;;;;;21019;6687;274425;-75
2023/06/18 09:39:27;;;;;;;6.47;6.07;;;35.10;23.30;;;;;;21227;6687;66101;-71
2023/06/18 09:41:52;;;;;;;6.20;5.90;;;35.10;22.70;;;;;;21236;6687;65753;-70
2023/06/18 09:44:18;;;;;;;6.83;6.33;;;35.00;22.70;;;;;;21013;6687;274100;-68
2023/06/18 09:46:44;;;;;;;6.10;5.80;;;35.10;22.00;;;;;;21224;6687;66201;-69
2023/06/18 09:49:10;;;;;;;5.90;5.60;;;35.20;22.20;;;;;;21225;6687;66071;-76
2023/06/18 09:51:41;;;;;;;6.00;5.50;;;35.10;22.30;;;;;;21221;6687;66626;-71
2023/06/18 09:54:06;;;;;;;6.32;5.93;;;35.00;22.00;;;;;;21010;6687;323663;-71
2023/06/18 09:56:32;;;;;;;6.23;5.93;;;35.10;20.90;;;;;;21217;6687;70288;-72
2023/06/18 09:58:57;;;;;;;6.95;5.70;;;35.10;21.00;;;;;;21233;6687;65848;-73
2023/06/18 10:01:27;;;;;;;6.50;6.00;;;34.90;21.60;;;;;;21010;6687;303509;-71
2023/06/18 10:03:49;;;;;;;9.83;9.13;;;35.00;20.40;;;;;;21229;6687;66354;-71
2023/06/18 10:06:15;;;;;;;6.43;6.03;;;35.10;20.80;;;;;;21247;6687;68036;-69
2023/06/18 10:08:40;;;;;;;6.13;5.67;;;35.00;21.00;;;;;;21216;6687;66544;-72
2023/06/18 10:11:07;;;;;;;6.17;5.83;;;34.80;21.20;;;;;;21238;6687;66015;-71
2023/06/18 10:13:35;;;;;;;5.85;5.55;;;34.70;21.30;;;;;;21243;6687;66221;-70
2023/06/18 10:16:00;;;;;;;5.57;5.20;;;34.70;21.30;;;;;;21234;6687;65548;-73
2023/06/18 10:18:26;;;;;;;5.20;4.90;;;34.70;21.20;;;;;;21241;6687;66607;-71
2023/06/18 10:20:52;;;;;;;6.10;5.80;;;35.00;20.30;;;;;;21010;6687;299768;-71
2023/06/18 10:23:18;;;;;;;6.37;5.95;;;35.00;20.30;;;;;;20996;6687;332352;-71
2023/06/18 10:25:44;;;;;;;5.53;5.23;;;35.40;20.40;;;;;;21231;6687;66372;-72
2023/06/18 10:28:11;;;;;;;5.87;5.37;;;35.70;20.30;;;;;;21005;6687;304163;-71
2023/06/18 10:30:37;;;;;;;6.10;5.60;;;35.70;20.20;;;;;;21020;6687;290281;-72
2023/06/18 10:33:03;;;;;;;5.70;5.20;;;36.00;20.00;;;;;;21176;6700;65716;-71
2023/06/18 10:35:30;;;;;;;5.47;5.10;;;35.80;20.10;;;;;;21183;6700;72395;-72
2023/06/18 10:37:56;;;;;;;5.40;5.03;;;35.80;20.00;;;;;;21179;6702;66556;-72
2023/06/18 10:40:22;;;;;;;5.60;5.30;;;35.70;19.70;;;;;;20950;6701;303551;-72
2023/06/18 10:42:48;;;;;;;5.63;5.27;;;35.60;19.60;;;;;;21179;6702;65772;-72
2023/06/18 10:45:14;;;;;;;5.50;5.13;;;35.70;19.90;;;;;;21177;6701;66545;-71
2023/06/18 10:47:40;;;;;;;5.33;5.03;;;35.50;20.00;;;;;;21181;6701;70319;-72
2023/06/18 10:50:06;;;;;;;5.73;5.33;;;35.50;20.00;;;;;;20957;6702;287162;-71
2023/06/18 10:52:36;;;;;;;4.80;4.60;;;35.70;19.60;;;;;;21087;6701;88693;-72
2023/06/18 10:55:05;;;;;;;5.43;5.13;;;35.80;19.70;;;;;;20959;6701;306792;-72
2023/06/18 10:57:31;;;;;;;4.93;4.63;;;36.00;19.50;;;;;;21183;6701;65985;-73
2023/06/18 10:59:58;;;;;;;4.77;4.57;;;36.10;19.50;;;;;;21167;6701;65667;-74
2023/06/18 11:02:32;;;;;;;5.37;4.90;;;35.90;19.40;;;;;;21149;6701;67584;-75
2023/06/18 11:04:57;;;;;;;5.70;5.30;;;35.70;19.50;;;;;;20947;6702;273949;-72
2023/06/18 11:07:23;;;;;;;6.32;5.45;;;35.70;19.10;;;;;;21124;6701;69606;-71
2023/06/18 11:09:58;;;;;;;5.73;5.40;;;35.70;19.70;;;;;;20920;6702;278001;-71
2023/06/18 11:12:24;;;;;;;5.72;5.40;;;35.70;19.20;;;;;;20934;6701;307992;-72
2023/06/18 11:15:16;;;;;;;5.83;5.53;;;35.90;19.60;;;;;;21122;6701;66083;-71
2023/06/18 11:17:51;;;;;;;5.97;5.57;;;35.90;19.70;;;;;;20939;6701;274340;-73
2023/06/18 11:20:20;;;;;;;6.13;5.63;;;36.00;20.10;;;;;;20934;6701;302794;-71
2023/06/18 11:22:46;;;;;;;5.77;5.47;;;36.20;19.40;;;;;;20960;6701;303258;-71
2023/06/18 11:25:14;;;;;;;5.97;5.50;;;36.10;19.40;;;;;;21189;6701;65607;-72
2023/06/18 11:27:41;;;;;;;5.87;5.40;;;36.10;19.40;;;;;;21182;6701;66000;-71
2023/06/18 11:30:10;;;;;;;5.77;5.37;;;35.80;19.50;;;;;;21190;6701;65648;-71
2023/06/18 11:32:35;;;;;;;5.90;5.40;;;35.60;20.00;;;;;;21177;6701;65852;-71
2023/06/18 11:35:01;;;;;;;6.03;5.60;;;35.30;20.30;;;;;;21172;6702;66265;-72
2023/06/18 11:37:30;;;;;;;6.57;6.20;;;35.30;20.40;;;;;;20964;6701;303148;-72
2023/06/18 11:39:56;;;;;;;5.73;5.33;;;35.50;19.80;;;;;;20967;6700;303351;-72
2023/06/18 11:42:22;;;;;;;5.90;5.60;;;35.70;19.60;;;;;;20957;6702;305287;-69
2023/06/18 11:44:49;;;;;;;5.55;5.15;;;35.90;20.20;;;;;;20963;6700;298106;-71
2023/06/18 11:47:15;;;;;;;6.00;5.70;;;36.10;19.70;;;;;;21193;6700;66156;-71
2023/06/18 11:49:43;;;;;;;6.03;5.57;;;36.00;19.60;;;;;;21188;6702;65687;-71
2023/06/18 11:52:10;;;;;;;5.97;5.57;;;35.50;20.20;;;;;;21179;6700;65766;-73
2023/06/18 11:54:41;;;;;;;5.77;5.40;;;35.50;20.20;;;;;;21179;6700;65591;-70
2023/06/18 11:57:07;;;;;;;6.93;6.07;;;35.30;20.20;;;;;;21179;6700;65998;-71
2023/06/18 11:59:32;;;;;;;5.47;5.17;;;35.20;20.00;;;;;;21170;6702;66689;-72
2023/06/18 12:02:12;;;;;;;5.60;5.30;;;35.00;20.00;;;;;;21187;6700;65688;-72
2023/06/18 12:04:38;;;;;;;5.77;5.33;;;35.10;20.00;;;;;;20709;6701;303539;-72
2023/06/18 12:07:04;;;;;;;5.73;5.40;;;35.10;20.00;;;;;;21183;6702;65717;-72
2023/06/18 12:09:30;;;;;;;5.30;5.10;;;35.20;20.30;;;;;;21186;6701;66190;-71
2023/06/18 12:12:07;;;;;;;5.80;5.40;;;34.90;20.30;;;;;;21182;6702;66134;-71
2023/06/18 12:14:38;;;;;;;6.13;5.63;;;34.90;20.30;;;;;;21188;6701;70892;-71
2023/06/18 12:17:08;;;;;;;5.50;5.20;;;34.80;20.60;;;;;;20817;6701;66599;-71
2023/06/18 12:19:34;;;;;;;6.07;5.67;;;34.60;20.80;;;;;;20944;6702;303857;-70
2023/06/18 12:22:03;;;;;;;6.17;5.80;;;34.70;20.30;;;;;;21178;6701;66302;-71
2023/06/18 12:24:32;;;;;;;5.90;5.60;;;34.80;20.40;;;;;;20972;6701;332797;-71
2023/06/18 12:26:56;;;;;;;5.97;5.57;;;35.00;20.50;;;;;;21182;6701;73196;-70
2023/06/18 12:29:23;;;;;;;5.83;5.40;;;35.00;20.70;;;;;;21127;6702;67090;-71
2023/06/18 12:32:04;;;;;;;6.23;5.87;;;34.80;20.60;;;;;;20964;6687;302780;-70
2023/06/18 12:34:38;;;;;;;6.40;5.90;;;34.80;20.60;;;;;;21218;6687;76479;-72
2023/06/18 12:37:00;;;;;;;6.20;5.80;;;34.70;20.50;;;;;;20994;6687;273628;-71
2023/06/18 12:39:26;;;;;;;6.10;5.70;;;34.80;20.30;;;;;;21219;6687;65922;-71
2023/06/18 12:41:52;;;;;;;6.27;5.90;;;34.70;20.20;;;;;;21227;6687;66636;-70
2023/06/18 12:44:18;;;;;;;5.83;5.53;;;34.40;20.40;;;;;;21010;6687;274450;-72
2023/06/18 12:46:45;;;;;;;6.07;5.57;;;34.40;20.90;;;;;;21215;6687;65571;-71
2023/06/18 12:49:11;;;;;;;7.13;5.33;;;34.40;21.20;;;;;;21229;6687;66293;-70
2023/06/18 12:51:39;;;;;;;6.53;6.03;;;34.40;21.60;;;;;;20937;6702;307958;-71
2023/06/18 12:54:05;;;;;;;6.53;6.03;;;34.50;22.40;;;;;;20949;6701;289443;-70
2023/06/18 12:56:31;;;;;;;6.47;5.87;;;34.90;21.70;;;;;;20936;6700;315881;-73
2023/06/18 12:58:58;;;;;;;6.30;5.82;;;35.20;21.20;;;;;;20965;6700;334161;-71
2023/06/18 13:01:23;;;;;;;6.00;5.57;;;35.50;20.80;;;;;;21170;6702;65953;-73
2023/06/18 13:03:48;;;;;;;6.80;6.27;;;35.40;21.00;;;;;;20965;6700;273540;-72
2023/06/18 13:06:16;;;;;;;7.20;6.00;;;35.50;20.40;;;;;;21173;6702;66215;-71
2023/06/18 13:08:41;;;;;;;6.90;6.40;;;35.10;21.00;;;;;;21191;6700;66043;-72
2023/06/18 13:11:07;;;;;;;6.10;5.70;;;35.10;21.00;;;;;;21160;6702;73148;-71
2023/06/18 13:13:35;;;;;;;6.57;6.00;;;35.10;21.30;;;;;;20968;6700;274019;-71
2023/06/18 13:16:02;;;;;;;6.85;6.45;;;35.40;20.80;;;;;;20959;6701;307709;-72